createdAt,value
2023-05-01T00:00:53.972Z,4.40
2023-05-01T00:03:39.581Z,4.40
2023-05-01T00:06:26.203Z,4.39
2023-05-01T00:09:11.913Z,4.39
2023-05-01T00:11:57.439Z,4.35
2023-05-01T00:14:42.965Z,4.32
2023-05-01T00:17:29.135Z,4.26
2023-05-01T00:20:14.798Z,4.21
2023-05-01T00:23:00.142Z,4.13
2023-05-01T00:25:45.578Z,4.07
2023-05-01T00:28:31.378Z,3.99
2023-05-01T00:31:18.511Z,3.94
2023-05-01T00:34:05.192Z,3.92
2023-05-01T00:36:51.502Z,3.91
2023-05-01T00:39:37.166Z,3.88
2023-05-01T00:42:22.650Z,3.83
2023-05-01T00:45:08.950Z,3.81
2023-05-01T00:47:54.433Z,3.74
2023-05-01T00:50:41.094Z,3.62
2023-05-01T00:53:28.342Z,3.56
2023-05-01T00:56:15.069Z,3.47
2023-05-01T00:59:01.251Z,3.45
2023-05-01T01:01:47.383Z,3.41
2023-05-01T01:04:34.537Z,3.38
2023-05-01T01:07:40.063Z,3.35
2023-05-01T01:10:41.014Z,3.32
2023-05-01T01:13:32.487Z,3.32
2023-05-01T01:16:45.413Z,3.30
2023-05-01T01:19:43.081Z,3.24
2023-05-01T01:22:29.922Z,3.13
2023-05-01T01:25:28.130Z,3.11
2023-05-01T01:28:14.012Z,3.09
2023-05-01T01:31:14.693Z,3.08
2023-05-01T01:34:24.926Z,3.09
2023-05-01T01:37:17.555Z,3.10
2023-05-01T01:40:17.309Z,3.11
2023-05-01T01:43:07.761Z,3.12
2023-05-01T01:45:59.496Z,3.11
2023-05-01T01:48:49.023Z,3.14
2023-05-01T01:51:37.983Z,3.16
2023-05-01T01:54:33.085Z,3.15
2023-05-01T01:57:20.975Z,3.14
2023-05-01T02:00:11.182Z,3.13
2023-05-01T02:03:03.714Z,3.11
2023-05-01T02:05:52.272Z,3.10
2023-05-01T02:08:38.434Z,3.08
2023-05-01T02:11:25.222Z,3.09
2023-05-01T02:14:13.407Z,3.12
2023-05-01T02:16:59.800Z,3.13
2023-05-01T02:19:46.653Z,3.14
2023-05-01T02:22:33.685Z,3.12
2023-05-01T02:25:19.292Z,3.13
2023-05-01T02:28:12.278Z,3.11
2023-05-01T02:30:59.168Z,3.09
2023-05-01T02:33:46.587Z,3.09
2023-05-01T02:36:33.589Z,3.09
2023-05-01T02:39:19.098Z,3.09
2023-05-01T02:42:06.292Z,3.07
2023-05-01T02:45:02.486Z,3.05
2023-05-01T02:47:53.002Z,3.04
2023-05-01T02:50:41.133Z,3.01
2023-05-01T02:53:27.122Z,2.96
2023-05-01T02:56:19.530Z,2.93
2023-05-01T02:59:05.164Z,2.87
2023-05-01T03:01:50.574Z,2.85
2023-05-01T03:04:36.097Z,2.84
2023-05-01T03:07:21.626Z,2.84
2023-05-01T03:10:07.961Z,2.83
2023-05-01T03:12:53.261Z,2.82
2023-05-01T03:15:39.175Z,2.79
2023-05-01T03:18:24.919Z,2.77
2023-05-01T03:21:12.648Z,2.76
2023-05-01T03:23:58.231Z,2.72
2023-05-01T03:26:43.715Z,2.71
2023-05-01T03:29:29.415Z,2.71
2023-05-01T03:32:16.507Z,2.70
2023-05-01T03:35:03.869Z,2.67
2023-05-01T03:37:49.707Z,2.66
2023-05-01T03:40:55.463Z,2.64
2023-05-01T03:43:59.766Z,2.63
2023-05-01T03:46:55.804Z,2.63
2023-05-01T03:49:45.392Z,2.63
2023-05-01T03:52:31.212Z,2.56
2023-05-01T03:55:16.853Z,2.48
2023-05-01T03:58:05.077Z,2.47
2023-05-01T04:00:51.114Z,2.49
2023-05-01T04:03:37.532Z,2.50
2023-05-01T04:06:23.616Z,2.52
2023-05-01T04:09:09.099Z,2.53
2023-05-01T04:11:54.559Z,2.54
2023-05-01T04:14:39.959Z,2.57
2023-05-01T04:17:25.970Z,2.53
2023-05-01T04:20:11.395Z,2.51
2023-05-01T04:22:57.678Z,2.56
2023-05-01T04:25:43.200Z,2.65
2023-05-01T04:28:32.681Z,2.72
2023-05-01T04:31:18.999Z,2.80
2023-05-01T04:34:04.932Z,2.92
2023-05-01T04:36:51.895Z,3.05
2023-05-01T04:39:38.157Z,3.18
2023-05-01T04:42:23.873Z,3.32
2023-05-01T04:45:10.321Z,3.46
2023-05-01T04:47:55.802Z,3.60
2023-05-01T04:50:41.024Z,3.74
2023-05-01T04:53:26.939Z,3.88
2023-05-01T04:56:12.558Z,4.05
2023-05-01T04:58:58.705Z,4.20
2023-05-01T05:01:46.126Z,4.41
2023-05-01T05:04:32.035Z,4.60
2023-05-01T05:07:17.409Z,4.81
2023-05-01T05:10:32.088Z,5.06
2023-05-01T05:13:36.487Z,5.29
2023-05-01T05:16:28.887Z,5.55
2023-05-01T05:19:16.333Z,5.78
2023-05-01T05:22:03.221Z,6.00
2023-05-01T05:25:04.437Z,6.21
2023-05-01T05:27:49.953Z,6.40
2023-05-01T05:30:35.518Z,6.57
2023-05-01T05:33:25.016Z,6.74
2023-05-01T05:36:11.436Z,6.94
2023-05-01T05:38:59.784Z,7.15
2023-05-01T05:41:45.303Z,7.32
2023-05-01T05:44:33.046Z,7.51
2023-05-01T05:47:18.877Z,7.71
2023-05-01T05:50:04.532Z,7.90
2023-05-01T05:52:51.643Z,8.08
2023-05-01T05:55:37.578Z,8.22
2023-05-01T05:58:25.316Z,8.35
2023-05-01T06:01:11.694Z,8.50
2023-05-01T06:03:58.407Z,8.66
2023-05-01T06:06:45.817Z,8.85
2023-05-01T06:09:31.267Z,9.01
2023-05-01T06:12:17.010Z,9.20
2023-05-01T06:15:03.516Z,9.38
2023-05-01T06:17:49.849Z,9.55
2023-05-01T06:20:35.434Z,9.74
2023-05-01T06:23:20.815Z,9.87
2023-05-01T06:26:32.993Z,10.02
2023-05-01T06:29:18.514Z,10.10
2023-05-01T06:32:04.403Z,10.19
2023-05-01T06:34:50.693Z,10.31
2023-05-01T06:37:38.587Z,10.39
2023-05-01T06:40:26.189Z,10.42
2023-05-01T06:43:11.591Z,10.45
2023-05-01T06:45:57.554Z,10.50
2023-05-01T06:48:43.917Z,10.60
2023-05-01T06:51:32.287Z,10.69
2023-05-01T06:54:17.974Z,10.78
2023-05-01T06:57:03.256Z,10.90
2023-05-01T06:59:48.525Z,10.96
2023-05-01T07:02:35.248Z,11.00
2023-05-01T07:05:21.088Z,11.05
2023-05-01T07:08:07.173Z,11.14
2023-05-01T07:10:53.974Z,11.26
2023-05-01T07:13:39.739Z,11.38
2023-05-01T07:16:25.487Z,11.51
2023-05-01T07:19:11.972Z,11.65
2023-05-01T07:21:59.947Z,11.71
2023-05-01T07:24:45.573Z,11.73
2023-05-01T07:27:31.754Z,11.75
2023-05-01T07:30:17.020Z,11.84
2023-05-01T07:33:03.064Z,11.90
2023-05-01T07:35:48.799Z,11.96
2023-05-01T07:38:35.030Z,12.03
2023-05-01T07:41:21.788Z,12.07
2023-05-01T07:44:07.258Z,12.09
2023-05-01T07:46:52.534Z,12.16
2023-05-01T07:49:38.676Z,12.22
2023-05-01T07:52:24.159Z,12.31
2023-05-01T07:55:10.312Z,12.40
2023-05-01T07:57:56.118Z,12.49
2023-05-01T08:00:41.679Z,12.63
2023-05-01T08:03:31.086Z,12.72
2023-05-01T08:06:16.675Z,12.72
2023-05-01T08:09:02.095Z,12.72
2023-05-01T08:11:47.824Z,12.77
2023-05-01T08:14:34.991Z,12.77
2023-05-01T08:17:21.148Z,12.68
2023-05-01T08:20:07.993Z,12.71
2023-05-01T08:22:53.291Z,12.80
2023-05-01T08:25:38.729Z,12.82
2023-05-01T08:28:24.494Z,12.82
2023-05-01T08:31:10.438Z,12.81
2023-05-01T08:33:55.847Z,12.88
2023-05-01T08:36:41.676Z,12.91
2023-05-01T08:39:28.772Z,12.97
2023-05-01T08:42:14.604Z,13.02
2023-05-01T08:45:01.681Z,13.06
2023-05-01T08:47:49.523Z,13.12
2023-05-01T08:50:37.047Z,13.12
2023-05-01T08:53:24.176Z,13.21
2023-05-01T08:56:13.758Z,13.26
2023-05-01T08:59:03.331Z,13.25
2023-05-01T09:01:50.449Z,13.29
2023-05-01T09:04:41.106Z,13.33
2023-05-01T09:07:26.995Z,13.47
2023-05-01T09:10:14.156Z,13.58
2023-05-01T09:13:07.060Z,13.69
2023-05-01T09:15:52.730Z,13.83
2023-05-01T09:18:41.054Z,13.96
2023-05-01T09:21:29.179Z,14.03
2023-05-01T09:24:14.535Z,14.01
2023-05-01T09:26:59.973Z,14.04
2023-05-01T09:29:47.978Z,14.15
2023-05-01T09:32:34.342Z,14.23
2023-05-01T09:35:19.986Z,14.35
2023-05-01T09:38:05.521Z,14.47
2023-05-01T09:40:53.927Z,14.55
2023-05-01T09:43:39.819Z,14.56
2023-05-01T09:46:26.735Z,14.54
2023-05-01T09:49:12.943Z,14.55
2023-05-01T09:52:11.498Z,14.63
2023-05-01T09:55:13.945Z,14.70
2023-05-01T09:57:59.494Z,14.89
2023-05-01T10:00:49.642Z,15.10
2023-05-01T10:03:35.314Z,15.18
2023-05-01T10:06:28.711Z,15.26
2023-05-01T10:09:27.990Z,15.37
2023-05-01T10:12:24.236Z,15.51
2023-05-01T10:15:23.786Z,15.62
2023-05-01T10:18:12.104Z,15.69
2023-05-01T10:20:57.973Z,15.59
2023-05-01T10:23:43.727Z,15.58
2023-05-01T10:26:29.147Z,15.69
2023-05-01T10:29:15.318Z,15.84
2023-05-01T10:32:06.975Z,15.98
2023-05-01T10:34:58.030Z,16.07
2023-05-01T10:37:49.181Z,16.19
2023-05-01T10:40:41.252Z,16.22
2023-05-01T10:43:31.278Z,16.28
2023-05-01T10:46:19.003Z,16.40
2023-05-01T10:49:04.976Z,16.46
2023-05-01T10:52:02.574Z,16.60
2023-05-01T10:54:48.054Z,16.78
2023-05-01T10:57:46.425Z,16.85
2023-05-01T11:00:34.232Z,17.00
2023-05-01T11:03:23.129Z,17.15
2023-05-01T11:06:08.836Z,17.35
2023-05-01T11:08:55.065Z,17.54
2023-05-01T11:11:40.491Z,17.70
2023-05-01T11:14:26.032Z,17.76
2023-05-01T11:17:11.457Z,17.75
2023-05-01T11:19:56.860Z,17.77
2023-05-01T11:22:48.554Z,17.86
2023-05-01T11:25:34.226Z,18.02
2023-05-01T11:28:21.561Z,18.15
2023-05-01T11:31:07.171Z,18.24
2023-05-01T11:33:55.848Z,18.36
2023-05-01T11:36:51.921Z,18.39
2023-05-01T11:39:37.836Z,18.44
2023-05-01T11:42:23.123Z,18.52
2023-05-01T11:45:12.563Z,18.52
2023-05-01T11:48:00.563Z,18.68
2023-05-01T11:50:48.228Z,18.79
2023-05-01T11:53:33.530Z,18.87
2023-05-01T11:56:27.058Z,18.90
2023-05-01T11:59:17.997Z,18.92
2023-05-01T12:02:03.594Z,18.96
2023-05-01T12:04:49.516Z,19.03
2023-05-01T12:07:37.574Z,19.07
2023-05-01T12:10:23.471Z,19.08
2023-05-01T12:13:10.836Z,18.98
2023-05-01T12:15:56.964Z,19.01
2023-05-01T12:18:43.260Z,19.01
2023-05-01T12:21:28.765Z,18.94
2023-05-01T12:24:16.974Z,18.97
2023-05-01T12:27:03.654Z,19.02
2023-05-01T12:29:49.621Z,19.04
2023-05-01T12:32:35.404Z,19.02
2023-05-01T12:35:21.386Z,19.03
2023-05-01T12:38:21.298Z,18.89
2023-05-01T12:41:09.518Z,18.76
2023-05-01T12:43:54.854Z,18.77
2023-05-01T12:46:40.337Z,18.86
2023-05-01T12:49:27.320Z,18.98
2023-05-01T12:52:12.961Z,19.13
2023-05-01T12:55:06.305Z,19.30
2023-05-01T12:57:53.867Z,19.40
2023-05-01T13:00:53.089Z,19.37
2023-05-01T13:03:43.370Z,19.38
2023-05-01T13:06:36.341Z,19.14
2023-05-01T13:09:32.813Z,19.06
2023-05-01T13:12:18.658Z,19.08
2023-05-01T13:15:04.543Z,19.04
2023-05-01T13:17:50.653Z,18.97
2023-05-01T13:20:39.063Z,18.86
2023-05-01T13:23:24.479Z,18.81
2023-05-01T13:26:13.116Z,18.74
2023-05-01T13:29:00.157Z,18.68
2023-05-01T13:31:46.129Z,18.59
2023-05-01T13:34:33.657Z,18.53
2023-05-01T13:37:19.261Z,18.47
2023-05-01T13:40:05.296Z,18.48
2023-05-01T13:42:53.246Z,18.52
2023-05-01T13:45:38.644Z,18.59
2023-05-01T13:48:24.855Z,18.65
2023-05-01T13:51:12.873Z,18.72
2023-05-01T13:53:58.586Z,18.83
2023-05-01T13:56:44.049Z,18.94
2023-05-01T13:59:40.459Z,18.99
2023-05-01T14:02:30.036Z,19.05
2023-05-01T14:05:16.332Z,19.11
2023-05-01T14:08:02.306Z,19.10
2023-05-01T14:10:48.473Z,19.08
2023-05-01T14:13:36.218Z,19.05
2023-05-01T14:16:27.209Z,19.09
2023-05-01T14:19:16.150Z,19.09
2023-05-01T14:22:01.616Z,19.10
2023-05-01T14:24:47.043Z,19.11
2023-05-01T14:27:33.542Z,19.07
2023-05-01T14:30:33.760Z,19.04
2023-05-01T14:33:19.665Z,19.03
2023-05-01T14:36:05.323Z,18.98
2023-05-01T14:38:51.808Z,18.90
2023-05-01T14:41:42.323Z,18.81
2023-05-01T14:44:30.511Z,18.71
2023-05-01T14:47:21.759Z,18.65
2023-05-01T14:50:07.720Z,18.60
2023-05-01T14:52:57.823Z,18.57
2023-05-01T14:55:43.677Z,18.53
2023-05-01T14:58:29.421Z,18.48
2023-05-01T15:01:15.222Z,18.41
2023-05-01T15:04:03.426Z,18.34
2023-05-01T15:06:50.182Z,18.28
2023-05-01T15:09:35.781Z,18.25
2023-05-01T15:12:21.335Z,18.20
2023-05-01T15:15:07.336Z,18.14
2023-05-01T15:17:53.000Z,18.10
2023-05-01T15:20:38.193Z,18.07
2023-05-01T15:23:25.116Z,18.03
2023-05-01T15:26:11.068Z,18.00
2023-05-01T15:28:56.466Z,17.95
2023-05-01T15:31:42.399Z,17.93
2023-05-01T15:34:28.757Z,17.87
2023-05-01T15:37:14.377Z,17.81
2023-05-01T15:40:00.155Z,17.74
2023-05-01T15:42:48.083Z,17.69
2023-05-01T15:45:33.745Z,17.62
2023-05-01T15:48:19.552Z,17.58
2023-05-01T15:51:05.043Z,17.54
2023-05-01T15:53:50.447Z,17.50
2023-05-01T15:56:37.311Z,17.46
2023-05-01T15:59:22.874Z,17.41
2023-05-01T16:02:08.955Z,17.39
2023-05-01T16:04:54.488Z,17.38
2023-05-01T16:07:40.360Z,17.33
2023-05-01T16:10:25.853Z,17.28
2023-05-01T16:13:11.371Z,17.24
2023-05-01T16:15:57.175Z,17.19
2023-05-01T16:18:42.938Z,17.13
2023-05-01T16:21:28.778Z,17.07
2023-05-01T16:24:14.926Z,17.03
2023-05-01T16:27:00.970Z,16.98
2023-05-01T16:29:46.653Z,16.92
2023-05-01T16:32:32.192Z,16.88
2023-05-01T16:35:18.439Z,16.82
2023-05-01T16:38:05.190Z,16.76
2023-05-01T16:40:50.710Z,16.69
2023-05-01T16:43:36.243Z,16.65
2023-05-01T16:46:22.182Z,16.60
2023-05-01T16:49:11.442Z,16.54
2023-05-01T16:51:58.304Z,16.44
2023-05-01T16:54:44.245Z,16.38
2023-05-01T16:57:29.566Z,16.30
2023-05-01T17:00:16.471Z,16.24
2023-05-01T17:03:02.258Z,16.19
2023-05-01T17:05:47.916Z,16.15
2023-05-01T17:08:33.499Z,16.08
2023-05-01T17:11:19.060Z,16.01
2023-05-01T17:14:04.631Z,15.93
2023-05-01T17:16:50.598Z,15.87
2023-05-01T17:19:39.003Z,15.80
2023-05-01T17:22:25.492Z,15.75
2023-05-01T17:25:12.355Z,15.68
2023-05-01T17:27:59.166Z,15.62
2023-05-01T17:30:44.876Z,15.56
2023-05-01T17:33:31.137Z,15.48
2023-05-01T17:36:16.836Z,15.33
2023-05-01T17:39:02.339Z,15.17
2023-05-01T17:41:49.415Z,14.99
2023-05-01T17:44:35.279Z,14.80
2023-05-01T17:47:21.666Z,14.63
2023-05-01T17:50:13.060Z,14.47
2023-05-01T17:52:58.978Z,14.34
2023-05-01T17:55:44.368Z,14.24
2023-05-01T17:58:29.853Z,14.18
2023-05-01T18:01:15.642Z,14.11
2023-05-01T18:04:01.850Z,14.05
2023-05-01T18:06:47.403Z,13.99
2023-05-01T18:09:33.160Z,13.93
2023-05-01T18:12:19.138Z,13.86
2023-05-01T18:15:04.633Z,13.77
2023-05-01T18:17:50.740Z,13.70
2023-05-01T18:20:36.687Z,13.63
2023-05-01T18:23:21.934Z,13.57
2023-05-01T18:26:08.261Z,13.51
2023-05-01T18:28:54.390Z,13.44
2023-05-01T18:31:40.184Z,13.39
2023-05-01T18:34:25.694Z,13.35
2023-05-01T18:37:10.951Z,13.29
2023-05-01T18:39:56.856Z,13.22
2023-05-01T18:42:43.594Z,13.21
2023-05-01T18:45:28.989Z,13.16
2023-05-01T18:48:14.599Z,13.13
2023-05-01T18:51:08.398Z,13.09
2023-05-01T18:53:54.764Z,13.08
2023-05-01T18:56:40.062Z,13.06
2023-05-01T18:59:30.852Z,13.03
2023-05-01T19:02:16.423Z,13.03
2023-05-01T19:05:02.245Z,13.03
2023-05-01T19:07:48.366Z,13.02
2023-05-01T19:10:35.463Z,13.03
2023-05-01T19:13:23.556Z,13.03
2023-05-01T19:16:09.133Z,13.02
2023-05-01T19:18:54.976Z,12.99
2023-05-01T19:21:40.247Z,12.95
2023-05-01T19:24:25.754Z,12.92
2023-05-01T19:27:11.708Z,12.87
2023-05-01T19:30:00.772Z,12.82
2023-05-01T19:32:47.457Z,12.79
2023-05-01T19:35:32.823Z,12.76
2023-05-01T19:38:18.417Z,12.72
2023-05-01T19:41:04.093Z,12.69
2023-05-01T19:43:49.367Z,12.67
2023-05-01T19:46:34.871Z,12.66
2023-05-01T19:49:20.297Z,12.65
2023-05-01T19:52:06.378Z,12.65
2023-05-01T19:54:52.301Z,12.64
2023-05-01T19:57:37.652Z,12.63
2023-05-01T20:00:23.121Z,12.63
2023-05-01T20:03:09.497Z,12.61
2023-05-01T20:05:55.666Z,12.58
2023-05-01T20:08:41.883Z,12.56
2023-05-01T20:11:27.771Z,12.52
2023-05-01T20:14:13.654Z,12.51
2023-05-01T20:16:59.065Z,12.50
2023-05-01T20:19:44.993Z,12.50
2023-05-01T20:22:30.387Z,12.49
2023-05-01T20:25:15.782Z,12.43
2023-05-01T20:28:03.390Z,12.42
2023-05-01T20:30:49.176Z,12.39
2023-05-01T20:33:34.930Z,12.35
2023-05-01T20:36:20.554Z,12.32
2023-05-01T20:39:06.112Z,12.31
2023-05-01T20:41:51.789Z,12.25
2023-05-01T20:44:37.311Z,12.22
2023-05-01T20:47:23.200Z,12.18
2023-05-01T20:50:09.212Z,12.14
2023-05-01T20:52:56.326Z,12.11
2023-05-01T20:55:41.975Z,12.07
2023-05-01T20:58:27.702Z,12.03
2023-05-01T21:01:13.087Z,12.01
2023-05-01T21:04:01.575Z,11.98
2023-05-01T21:06:47.567Z,11.97
2023-05-01T21:09:33.628Z,11.93
2023-05-01T21:12:19.323Z,11.91
2023-05-01T21:15:05.623Z,11.92
2023-05-01T21:17:51.119Z,11.91
2023-05-01T21:20:36.570Z,11.95
2023-05-01T21:23:26.301Z,11.93
2023-05-01T21:26:14.070Z,11.93
2023-05-01T21:28:59.573Z,11.94
2023-05-01T21:31:45.404Z,11.95
2023-05-01T21:34:31.197Z,11.94
2023-05-01T21:37:18.695Z,11.93
2023-05-01T21:40:09.098Z,11.91
2023-05-01T21:42:55.213Z,11.89
2023-05-01T21:45:44.449Z,11.88
2023-05-01T21:48:34.327Z,11.86
2023-05-01T21:51:28.549Z,11.86
2023-05-01T21:54:18.359Z,11.85
2023-05-01T21:57:07.712Z,11.83
2023-05-01T21:59:56.670Z,11.82
2023-05-01T22:02:44.822Z,11.81
2023-05-01T22:05:32.060Z,11.79
2023-05-01T22:08:17.648Z,11.79
2023-05-01T22:11:04.129Z,11.79
2023-05-01T22:13:50.450Z,11.78
2023-05-01T22:16:35.808Z,11.77
2023-05-01T22:19:20.996Z,11.76
2023-05-01T22:22:06.474Z,11.74
2023-05-01T22:24:51.851Z,11.73
2023-05-01T22:27:37.578Z,11.69
2023-05-01T22:30:23.201Z,11.65
2023-05-01T22:33:08.977Z,11.59
2023-05-01T22:35:55.054Z,11.55
2023-05-01T22:38:40.659Z,11.50
2023-05-01T22:41:26.818Z,11.47
2023-05-01T22:44:12.317Z,11.39
2023-05-01T22:46:59.514Z,11.33
2023-05-01T22:49:44.972Z,11.28
2023-05-01T22:52:30.713Z,11.25
2023-05-01T22:55:16.516Z,11.19
2023-05-01T22:58:02.294Z,11.16
2023-05-01T23:00:47.946Z,11.13
2023-05-01T23:03:35.696Z,11.09
2023-05-01T23:06:22.705Z,11.03
2023-05-01T23:09:08.528Z,10.97
2023-05-01T23:11:54.239Z,10.91
2023-05-01T23:14:45.273Z,10.86
2023-05-01T23:17:34.693Z,10.83
2023-05-01T23:20:22.853Z,10.82
2023-05-01T23:23:13.848Z,10.80
2023-05-01T23:25:59.399Z,10.78
2023-05-01T23:28:45.343Z,10.74
2023-05-01T23:31:30.873Z,10.71
2023-05-01T23:34:17.508Z,10.67
2023-05-01T23:37:03.568Z,10.63
2023-05-01T23:39:49.405Z,10.58
2023-05-01T23:42:36.968Z,10.53
2023-05-01T23:45:22.603Z,10.47
2023-05-01T23:48:08.001Z,10.38
2023-05-01T23:50:53.674Z,10.28
2023-05-01T23:53:39.116Z,10.22
2023-05-01T23:56:24.428Z,10.16
2023-05-01T23:59:09.979Z,10.09
